Jeffries, Mississippi
Current Conditions -  °F | °C
As of 7:15 PM on Saturday 25 Oct 2014 (Local Time) from KUTA Reporting Station
Scattered Clouds Scattered Clouds  
Wind Chill: 72°   Ceiling: Unl
Heat Index: 72°   Visibility: 10mi
Dew Point: 63°   Wind: 3mph
Humidity: 73%   Direction: 200°SSW
Pressure: 30.04"   Gusts: NA
Location:  34.5324°N, 90.3891°W
Report Text: KUTA 260015Z AUTO 20003KT 10SM SCT001 22/17 A3004 RMK AO2
Loading
Personal Weather Stations






























Interactive Weather Map
Tropical Storm Tracking
New forecast layout! Learn more

10-Day Weather Forecast

Advertisements
Track Severe Weather on mobile